Time;durP1;ratioP1;P1;durP2;ratioP2;P2;SDS_P1;SDS_P2;PMS_P1;PMS_P2;Temp;Humidity;BMP_temperature;BMP_pressure;BME280_temperature;BME280_humidity;BME280_pressure;Samples;Min_cycle;Max_cycle;Signal;HPM_P1;HPM_P2
2020/12/10 00:01:52;;;;;;;22.50;18.67;;;1.50;99.90;;;;;;5047875;28;20718;-72
2020/12/10 00:04:18;;;;;;;23.23;15.97;;;1.50;99.90;;;;;;5046074;28;20182;-72
2020/12/10 00:06:44;;;;;;;25.47;16.40;;;1.50;99.90;;;;;;5047487;28;20651;-71
2020/12/10 00:09:09;;;;;;;21.67;16.73;;;1.50;99.90;;;;;;5047028;28;20463;-72
2020/12/10 00:11:36;;;;;;;22.80;16.97;;;1.50;99.90;;;;;;5047924;28;20179;-72
2020/12/10 00:14:03;;;;;;;19.13;15.07;;;1.50;99.90;;;;;;5046510;28;20191;-72
2020/12/10 00:16:28;;;;;;;19.30;14.90;;;1.50;99.90;;;;;;5044919;28;20973;-72
2020/12/10 00:18:54;;;;;;;20.80;14.87;;;1.50;99.90;;;;;;5047450;28;20460;-72
2020/12/10 00:21:23;;;;;;;17.87;12.97;;;1.40;99.90;;;;;;5047366;28;20659;-73
2020/12/10 00:23:49;;;;;;;24.27;15.87;;;1.40;99.90;;;;;;5057965;28;20195;-73
2020/12/10 00:26:15;;;;;;;20.10;14.27;;;1.40;99.90;;;;;;5065225;28;20505;-74
2020/12/10 00:28:41;;;;;;;19.63;13.40;;;1.40;99.90;;;;;;5061243;28;20259;-72
2020/12/10 00:31:07;;;;;;;20.70;14.80;;;1.50;99.90;;;;;;5045562;28;20460;-72
2020/12/10 00:33:32;;;;;;;19.43;14.47;;;1.50;99.90;;;;;;5046910;28;20952;-72
2020/12/10 00:35:58;;;;;;;18.70;14.40;;;1.50;99.90;;;;;;5046363;28;20721;-72
2020/12/10 00:38:24;;;;;;;19.93;14.83;;;1.50;99.90;;;;;;5046355;28;20674;-73
2020/12/10 00:40:49;;;;;;;19.93;15.23;;;1.40;99.90;;;;;;5045654;28;20190;-73
2020/12/10 00:43:15;;;;;;;20.83;15.17;;;1.50;99.90;;;;;;5045132;28;20187;-74
2020/12/10 00:45:40;;;;;;;20.60;14.90;;;1.50;99.90;;;;;;5046433;28;20198;-73
2020/12/10 00:48:06;;;;;;;20.47;14.93;;;1.50;99.90;;;;;;5044997;28;20221;-73
2020/12/10 00:50:31;;;;;;;19.27;14.77;;;1.50;99.90;;;;;;5046500;28;20201;-73
2020/12/10 00:52:57;;;;;;;20.87;14.70;;;1.50;99.90;;;;;;5047104;28;20199;-73
2020/12/10 00:55:22;;;;;;;24.63;15.33;;;1.60;99.90;;;;;;5046120;28;20187;-73
2020/12/10 00:57:49;;;;;;;21.30;15.70;;;1.60;99.90;;;;;;5046138;28;20253;-74
2020/12/10 01:00:16;;;;;;;18.43;15.23;;;1.60;99.90;;;;;;5046734;28;20196;-73
2020/12/10 01:02:41;;;;;;;21.10;15.33;;;1.60;99.90;;;;;;5046752;28;20460;-73
2020/12/10 01:05:07;;;;;;;18.27;14.50;;;1.60;99.90;;;;;;5046212;28;20476;-73
2020/12/10 01:07:33;;;;;;;20.43;14.83;;;1.60;99.90;;;;;;5044488;28;20329;-73
2020/12/10 01:09:59;;;;;;;18.27;14.10;;;1.60;99.90;;;;;;5046155;28;20428;-74
2020/12/10 01:12:25;;;;;;;18.90;14.57;;;1.50;99.90;;;;;;5047077;28;20433;-72
2020/12/10 01:14:50;;;;;;;21.40;16.37;;;1.50;99.90;;;;;;5046076;28;20189;-72
2020/12/10 01:17:16;;;;;;;22.30;14.03;;;1.50;99.90;;;;;;5046058;28;20210;-73
2020/12/10 01:19:41;;;;;;;19.80;14.27;;;1.50;99.90;;;;;;5045720;28;20211;-73
2020/12/10 01:22:07;;;;;;;17.70;13.17;;;1.50;99.90;;;;;;5045015;28;20186;-72
2020/12/10 01:24:32;;;;;;;22.50;14.80;;;1.50;99.90;;;;;;5046343;28;20273;-72
2020/12/10 01:26:58;;;;;;;17.67;14.07;;;1.50;99.90;;;;;;5045403;28;20251;-72
2020/12/10 01:29:24;;;;;;;20.83;13.57;;;1.50;99.90;;;;;;5045040;28;20573;-72
2020/12/10 01:31:50;;;;;;;19.67;14.20;;;1.50;99.90;;;;;;5046646;28;20197;-72
2020/12/10 01:34:16;;;;;;;22.57;14.30;;;1.50;99.90;;;;;;5044731;28;20212;-72
2020/12/10 01:36:42;;;;;;;20.40;13.30;;;1.50;99.90;;;;;;5045215;28;20440;-73
2020/12/10 01:39:07;;;;;;;22.07;13.90;;;1.50;99.90;;;;;;5045632;28;20566;-74
2020/12/10 01:41:34;;;;;;;21.57;14.60;;;1.50;99.90;;;;;;5045861;28;20179;-72
2020/12/10 01:44:05;;;;;;;19.67;14.23;;;1.40;99.90;;;;;;5045897;28;20195;-74
2020/12/10 01:46:31;;;;;;;18.10;14.30;;;1.50;99.90;;;;;;5045318;28;20559;-72
2020/12/10 01:48:56;;;;;;;22.50;16.00;;;1.50;99.90;;;;;;5045684;28;20465;-74
2020/12/10 01:51:22;;;;;;;18.67;14.03;;;1.40;99.90;;;;;;5044045;28;20433;-70
2020/12/10 01:53:48;;;;;;;20.90;14.37;;;1.40;99.90;;;;;;5045705;28;20613;-71
2020/12/10 01:56:16;;;;;;;18.60;13.47;;;1.40;99.90;;;;;;5044451;28;20655;-72
2020/12/10 01:58:41;;;;;;;19.13;14.33;;;1.40;99.90;;;;;;5045646;28;20750;-72
2020/12/10 02:01:07;;;;;;;21.87;16.20;;;1.50;99.90;;;;;;5045798;28;20528;-71
2020/12/10 02:03:32;;;;;;;20.53;14.90;;;1.50;99.90;;;;;;5045295;28;20186;-72
2020/12/10 02:05:58;;;;;;;19.97;14.00;;;1.50;99.90;;;;;;5045423;28;20194;-74
2020/12/10 02:08:23;;;;;;;18.50;13.57;;;1.50;99.90;;;;;;5046098;28;20240;-74
2020/12/10 02:10:49;;;;;;;19.40;14.33;;;1.60;99.90;;;;;;5044702;28;20554;-72
2020/12/10 02:13:14;;;;;;;20.10;14.07;;;1.50;99.90;;;;;;5044698;28;20741;-72
2020/12/10 02:15:49;;;;;;;18.50;13.50;;;1.50;99.90;;;;;;5045328;28;20233;-73
2020/12/10 02:18:15;;;;;;;21.03;15.27;;;1.50;99.90;;;;;;5045495;28;20222;-76
2020/12/10 02:20:41;;;;;;;20.97;13.97;;;1.50;99.90;;;;;;5045794;28;20468;-73
2020/12/10 02:23:08;;;;;;;17.10;13.30;;;1.50;99.90;;;;;;5044964;28;20468;-74
2020/12/10 02:25:35;;;;;;;17.97;14.13;;;1.70;99.90;;;;;;5045347;28;20179;-72
2020/12/10 02:28:14;;;;;;;18.27;13.37;;;1.70;99.90;;;;;;5045261;28;20561;-73
2020/12/10 02:30:41;;;;;;;16.70;13.60;;;1.70;99.90;;;;;;5045493;28;20464;-73
2020/12/10 02:33:08;;;;;;;17.00;13.10;;;1.70;99.90;;;;;;5045180;28;20432;-73
2020/12/10 02:35:36;;;;;;;16.70;13.70;;;1.60;99.90;;;;;;5045344;28;20657;-72
2020/12/10 02:38:04;;;;;;;16.53;12.57;;;1.70;99.90;;;;;;5045324;28;20478;-73
2020/12/10 02:40:34;;;;;;;21.57;14.37;;;1.70;99.90;;;;;;5046397;28;20796;-73
2020/12/10 02:43:00;;;;;;;22.90;14.70;;;1.70;99.90;;;;;;5048441;28;20444;-72
2020/12/10 02:45:26;;;;;;;17.30;13.93;;;1.70;99.90;;;;;;5048991;28;20512;-73
2020/12/10 02:47:53;;;;;;;18.77;14.10;;;1.60;99.90;;;;;;5047590;28;20914;-74
2020/12/10 02:50:19;;;;;;;21.63;16.40;;;1.60;99.90;;;;;;5049024;28;20432;-74
2020/12/10 02:52:45;;;;;;;20.40;14.63;;;1.60;99.90;;;;;;5048484;28;20535;-75
2020/12/10 02:55:10;;;;;;;18.63;14.40;;;1.60;99.90;;;;;;5049216;28;20887;-73
2020/12/10 02:57:36;;;;;;;18.40;13.90;;;1.70;99.90;;;;;;5048384;28;20256;-73
2020/12/10 03:00:05;;;;;;;22.77;14.53;;;1.70;99.90;;;;;;5047835;28;20273;-72
2020/12/10 03:02:30;;;;;;;19.10;14.50;;;1.80;99.90;;;;;;5047318;28;20190;-70
2020/12/10 03:04:56;;;;;;;22.27;16.33;;;1.90;99.90;;;;;;5049093;28;20424;-73
2020/12/10 03:07:22;;;;;;;19.50;14.60;;;1.80;99.90;;;;;;5048563;28;20701;-73
2020/12/10 03:09:47;;;;;;;18.83;14.50;;;1.80;99.90;;;;;;5048638;28;20608;-74
2020/12/10 03:12:13;;;;;;;17.33;13.73;;;1.70;99.90;;;;;;5048669;28;20537;-75
2020/12/10 03:14:39;;;;;;;21.57;14.70;;;1.70;99.90;;;;;;5048668;28;20182;-72
2020/12/10 03:17:05;;;;;;;19.50;15.20;;;1.60;99.90;;;;;;5048710;28;20251;-72
2020/12/10 03:19:30;;;;;;;19.10;14.33;;;1.60;99.90;;;;;;5048631;28;20214;-72
2020/12/10 03:21:56;;;;;;;22.77;15.40;;;1.60;99.90;;;;;;5048808;28;20510;-72
2020/12/10 03:24:22;;;;;;;20.67;14.87;;;1.60;99.90;;;;;;5048884;28;20190;-73
2020/12/10 03:26:47;;;;;;;20.10;14.70;;;1.70;99.90;;;;;;5047938;28;20852;-76
2020/12/10 03:29:13;;;;;;;18.10;13.50;;;1.60;99.90;;;;;;5050634;28;20200;-73
2020/12/10 03:31:38;;;;;;;20.77;14.80;;;1.60;99.90;;;;;;5055562;28;20280;-73
2020/12/10 03:34:04;;;;;;;20.90;15.80;;;1.70;99.90;;;;;;5052369;28;20180;-72
2020/12/10 03:36:49;;;;;;;19.20;15.17;;;1.70;99.90;;;;;;5050903;28;20248;-73
2020/12/10 03:39:16;;;;;;;18.07;14.50;;;1.70;99.90;;;;;;5041472;28;20218;-73
2020/12/10 03:41:43;;;;;;;21.73;15.50;;;1.70;99.90;;;;;;5048267;28;20511;-71
2020/12/10 03:44:08;;;;;;;21.40;14.73;;;1.60;99.90;;;;;;5048603;28;20451;-73
2020/12/10 03:46:34;;;;;;;19.23;14.73;;;1.70;99.90;;;;;;5049802;28;20433;-74
2020/12/10 03:49:00;;;;;;;20.83;14.37;;;1.70;99.90;;;;;;5056249;28;20200;-73
2020/12/10 03:51:25;;;;;;;22.60;15.67;;;1.60;99.90;;;;;;5063643;28;20565;-71
2020/12/10 03:53:51;;;;;;;21.10;14.80;;;1.60;99.90;;;;;;5052575;28;20437;-71
2020/12/10 03:56:16;;;;;;;19.70;13.97;;;1.70;99.90;;;;;;5048822;28;20197;-73
2020/12/10 03:58:42;;;;;;;19.20;13.57;;;1.70;99.90;;;;;;5047902;28;20214;-74
2020/12/10 04:01:07;;;;;;;19.57;14.23;;;1.60;99.90;;;;;;5048247;28;20182;-70
2020/12/10 04:03:33;;;;;;;18.63;13.70;;;1.60;99.90;;;;;;5047545;28;20187;-72
2020/12/10 04:05:58;;;;;;;18.67;15.17;;;1.60;99.90;;;;;;5046122;28;20673;-73
2020/12/10 04:08:24;;;;;;;21.73;16.83;;;1.60;99.90;;;;;;5047647;28;20576;-72
2020/12/10 04:10:49;;;;;;;15.37;12.07;;;1.60;99.90;;;;;;5054604;28;20205;-73
2020/12/10 04:13:15;;;;;;;15.70;12.77;;;1.60;99.90;;;;;;5057133;28;20261;-70
2020/12/10 04:15:40;;;;;;;16.93;13.20;;;1.60;99.90;;;;;;5054517;28;20221;-75
2020/12/10 04:18:06;;;;;;;15.80;12.60;;;1.50;99.90;;;;;;5047139;28;20214;-72
2020/12/10 04:20:32;;;;;;;14.73;12.00;;;1.50;99.90;;;;;;5047183;28;20193;-71
2020/12/10 04:22:57;;;;;;;16.87;12.73;;;1.50;99.90;;;;;;5045580;28;20242;-72
2020/12/10 04:25:23;;;;;;;15.70;12.97;;;1.50;99.90;;;;;;5047043;28;20312;-72
2020/12/10 04:27:48;;;;;;;16.00;12.40;;;1.60;99.90;;;;;;5045115;28;20282;-72
2020/12/10 04:30:20;;;;;;;16.60;12.50;;;1.60;99.90;;;;;;5046138;28;20260;-72
2020/12/10 04:32:46;;;;;;;19.87;13.23;;;1.70;99.90;;;;;;5040138;28;20171;-72
2020/12/10 04:35:11;;;;;;;16.50;13.40;;;1.70;99.90;;;;;;5047133;28;20558;-71
2020/12/10 04:37:37;;;;;;;19.17;13.40;;;1.60;99.90;;;;;;5044953;28;20229;-73
2020/12/10 04:40:03;;;;;;;19.50;14.60;;;1.60;99.90;;;;;;5047030;28;20564;-74
2020/12/10 04:42:29;;;;;;;16.53;13.87;;;1.60;99.90;;;;;;5046868;28;20443;-73
2020/12/10 04:44:54;;;;;;;17.73;12.87;;;1.70;99.90;;;;;;5046751;28;20262;-73
2020/12/10 04:47:22;;;;;;;17.53;14.20;;;1.80;99.90;;;;;;5045500;28;20225;-73
2020/12/10 04:49:50;;;;;;;16.73;13.70;;;1.70;99.90;;;;;;5046866;28;20190;-72
2020/12/10 04:52:16;;;;;;;15.33;12.40;;;1.80;99.90;;;;;;5046533;28;21007;-71
2020/12/10 04:54:42;;;;;;;19.50;15.17;;;1.60;99.90;;;;;;5046734;28;20444;-72
2020/12/10 04:57:11;;;;;;;17.83;14.03;;;1.70;99.90;;;;;;5046543;28;20233;-72
2020/12/10 04:59:36;;;;;;;16.97;13.63;;;1.70;99.90;;;;;;5046261;28;20217;-73
2020/12/10 05:02:07;;;;;;;17.40;13.57;;;1.80;99.90;;;;;;5046002;28;20433;-72
2020/12/10 05:04:33;;;;;;;17.60;14.20;;;1.60;99.90;;;;;;5044885;28;20217;-72
2020/12/10 05:06:59;;;;;;;18.03;14.83;;;1.70;99.90;;;;;;5046393;28;20451;-71
2020/12/10 05:09:25;;;;;;;19.23;14.97;;;1.70;99.90;;;;;;5045727;28;20436;-71
2020/12/10 05:11:50;;;;;;;18.73;13.60;;;1.60;99.90;;;;;;5046814;28;20189;-72
2020/12/10 05:14:16;;;;;;;17.83;13.60;;;1.60;99.90;;;;;;5046278;28;20261;-72
2020/12/10 05:16:41;;;;;;;21.40;13.50;;;1.60;99.90;;;;;;5045360;28;20635;-72
2020/12/10 05:19:20;;;;;;;19.57;14.53;;;1.70;99.90;;;;;;5046166;28;20237;-73
2020/12/10 05:22:06;;;;;;;16.03;13.77;;;1.70;99.90;;;;;;5043731;28;20190;-73
2020/12/10 05:24:33;;;;;;;18.40;14.73;;;1.70;99.90;;;;;;5046139;28;20428;-72
2020/12/10 05:27:19;;;;;;;15.03;12.77;;;1.60;99.90;;;;;;5045570;28;20977;-74
2020/12/10 05:29:46;;;;;;;19.13;14.77;;;1.80;99.90;;;;;;5044513;28;20432;-74
2020/12/10 05:32:37;;;;;;;17.33;13.87;;;1.70;99.90;;;;;;5046411;28;20428;-74
2020/12/10 05:35:17;;;;;;;21.10;14.80;;;1.80;99.90;;;;;;5045988;28;20428;-74
2020/12/10 05:37:42;;;;;;;19.13;14.47;;;1.80;99.90;;;;;;5045367;28;20449;-73
2020/12/10 05:40:08;;;;;;;17.90;13.37;;;1.80;99.90;;;;;;5045396;28;21055;-74
2020/12/10 05:42:35;;;;;;;20.10;15.17;;;1.80;99.90;;;;;;5045047;28;20186;-73
2020/12/10 05:45:10;;;;;;;21.97;14.77;;;1.90;99.90;;;;;;5041032;28;20320;-73
2020/12/10 05:47:41;;;;;;;20.43;14.40;;;1.80;99.90;;;;;;5044252;28;20551;-75
2020/12/10 05:50:07;;;;;;;18.80;14.37;;;1.80;99.90;;;;;;5045810;28;20460;-71
2020/12/10 05:52:35;;;;;;;21.70;15.07;;;1.80;99.90;;;;;;5045225;28;20943;-73
2020/12/10 05:55:02;;;;;;;25.63;17.93;;;1.60;99.90;;;;;;5046414;28;20194;-73
2020/12/10 05:57:28;;;;;;;20.93;15.37;;;1.60;99.90;;;;;;5045240;28;20460;-73
2020/12/10 05:59:54;;;;;;;19.67;14.37;;;1.60;99.90;;;;;;5045135;28;20468;-74
2020/12/10 06:02:20;;;;;;;20.37;14.57;;;1.60;99.90;;;;;;5044593;28;20182;-75
2020/12/10 06:04:46;;;;;;;21.30;15.47;;;1.50;99.90;;;;;;5044337;28;20216;-74
2020/12/10 06:07:12;;;;;;;21.47;15.30;;;1.60;99.90;;;;;;5045398;28;20864;-74
2020/12/10 06:09:41;;;;;;;21.90;14.90;;;1.60;99.90;;;;;;5044518;28;21015;-74
2020/12/10 06:12:07;;;;;;;22.27;16.30;;;1.70;99.90;;;;;;5044769;28;20471;-74
2020/12/10 06:15:01;;;;;;;17.73;14.13;;;1.70;99.90;;;;;;5044510;28;20972;-72
2020/12/10 06:17:27;;;;;;;19.00;14.80;;;1.70;99.90;;;;;;5044344;28;20460;-69
2020/12/10 06:19:52;;;;;;;18.80;14.43;;;1.70;99.90;;;;;;5043758;28;20472;-75
2020/12/10 06:22:28;;;;;;;19.60;15.60;;;1.60;99.90;;;;;;5044035;28;20179;-74
2020/12/10 06:24:58;;;;;;;22.80;16.30;;;1.70;99.90;;;;;;5045186;28;20209;-73
2020/12/10 06:27:26;;;;;;;21.30;16.90;;;1.60;99.90;;;;;;5043981;28;21052;-73
2020/12/10 06:30:24;;;;;;;20.87;15.27;;;1.60;99.90;;;;;;5045051;28;20520;-74
2020/12/10 06:32:51;;;;;;;21.00;16.17;;;1.60;99.90;;;;;;5042139;28;20437;-75
2020/12/10 06:35:35;;;;;;;24.43;15.90;;;1.60;99.90;;;;;;5042164;28;20425;-73
2020/12/10 06:38:05;;;;;;;23.83;16.03;;;1.60;99.90;;;;;;5041911;28;20476;-71
2020/12/10 06:40:32;;;;;;;21.30;15.27;;;1.80;99.90;;;;;;5041550;28;20454;-74
2020/12/10 06:42:58;;;;;;;22.27;17.03;;;1.80;99.90;;;;;;5058894;28;20425;-73
2020/12/10 06:45:25;;;;;;;29.60;18.57;;;1.90;99.90;;;;;;5036331;28;20432;-72
2020/12/10 06:47:50;;;;;;;21.17;15.33;;;1.90;99.90;;;;;;5041999;28;20461;-71
2020/12/10 06:50:27;;;;;;;21.40;16.77;;;1.80;99.90;;;;;;5042048;28;20482;-71
2020/12/10 06:53:12;;;;;;;23.43;16.50;;;1.80;99.90;;;;;;5041999;28;20284;-73
2020/12/10 06:55:58;;;;;;;25.67;17.93;;;1.80;99.90;;;;;;5042094;28;20441;-73
2020/12/10 06:58:42;;;;;;;23.97;17.90;;;1.80;99.90;;;;;;5042021;28;20476;-71
2020/12/10 07:01:28;;;;;;;26.77;17.20;;;1.80;99.90;;;;;;5039545;28;21144;-73
2020/12/10 07:07:13;;;;;;;21.47;16.20;;;1.90;99.90;;;;;;5042372;28;20444;-72
2020/12/10 07:09:58;;;;;;;24.10;16.67;;;1.90;99.90;;;;;;5043183;28;20440;-72
2020/12/10 07:12:27;;;;;;;22.53;14.60;;;1.90;99.90;;;;;;5042947;28;20434;-72
2020/12/10 07:15:15;;;;;;;18.80;13.80;;;1.70;99.90;;;;;;5044628;28;20435;-70
2020/12/10 07:17:47;;;;;;;16.63;12.73;;;1.70;99.90;;;;;;5041285;28;20462;-72
2020/12/10 07:20:12;;;;;;;15.93;12.43;;;1.70;99.90;;;;;;5044629;28;20469;-73
2020/12/10 07:22:38;;;;;;;19.63;13.40;;;1.60;99.90;;;;;;5044822;28;20424;-73
2020/12/10 07:25:03;;;;;;;19.67;13.80;;;1.70;99.90;;;;;;5043341;28;20179;-74
2020/12/10 07:27:29;;;;;;;16.53;12.47;;;1.70;99.90;;;;;;5048343;28;20206;-73
2020/12/10 07:29:55;;;;;;;13.93;10.60;;;1.80;99.90;;;;;;5048958;28;20495;-72
2020/12/10 07:32:20;;;;;;;11.00;8.60;;;1.80;99.90;;;;;;5048158;28;20191;-73
2020/12/10 07:34:46;;;;;;;12.10;9.23;;;1.70;99.90;;;;;;5048082;28;20276;-73
2020/12/10 07:37:13;;;;;;;8.53;6.77;;;1.70;99.90;;;;;;5048195;28;20207;-75
2020/12/10 07:39:39;;;;;;;9.17;7.20;;;1.70;99.90;;;;;;5048161;28;20620;-72
2020/12/10 07:42:06;;;;;;;10.17;6.83;;;1.70;99.90;;;;;;5048107;28;20432;-74
2020/12/10 07:44:33;;;;;;;11.20;7.50;;;1.80;99.90;;;;;;5048026;28;20805;-73
2020/12/10 07:47:00;;;;;;;8.57;7.60;;;1.70;99.90;;;;;;5046248;28;20544;-73
2020/12/10 07:49:27;;;;;;;8.80;7.90;;;1.80;99.90;;;;;;5037114;28;20476;-73
2020/12/10 07:52:12;;;;;;;10.93;7.73;;;1.90;99.90;;;;;;5047114;28;20433;-73
2020/12/10 07:54:52;;;;;;;7.97;7.17;;;1.80;99.90;;;;;;5038390;28;20477;-72
2020/12/10 07:57:31;;;;;;;11.17;7.50;;;1.80;99.90;;;;;;5048314;28;20822;-73
2020/12/10 08:00:05;;;;;;;10.17;7.43;;;1.80;99.90;;;;;;5061193;28;20567;-72
2020/12/10 08:02:52;;;;;;;8.57;7.73;;;1.80;99.90;;;;;;5060266;28;20448;-75
2020/12/10 08:05:18;;;;;;;9.13;7.70;;;1.80;99.90;;;;;;5053054;28;20723;-70
2020/12/10 08:07:49;;;;;;;9.50;7.80;;;1.80;99.90;;;;;;5047600;28;20960;-72
2020/12/10 08:10:26;;;;;;;9.67;7.93;;;1.70;99.90;;;;;;5047673;28;20517;-70
2020/12/10 08:13:19;;;;;;;8.90;7.63;;;1.70;99.90;;;;;;5047941;28;20504;-72
2020/12/10 08:15:49;;;;;;;13.37;10.03;;;1.70;99.90;;;;;;5044605;28;20432;-72
2020/12/10 08:18:18;;;;;;;10.57;8.90;;;1.80;99.90;;;;;;5047203;28;20538;-71
2020/12/10 08:20:48;;;;;;;11.70;9.10;;;1.90;99.90;;;;;;5047764;28;20425;-70
2020/12/10 08:23:15;;;;;;;11.20;8.97;;;1.90;99.90;;;;;;5047358;28;20424;-72
2020/12/10 08:25:42;;;;;;;10.03;8.07;;;2.00;99.90;;;;;;5047295;28;20421;-72
2020/12/10 08:28:09;;;;;;;12.47;10.37;;;2.00;99.90;;;;;;5047429;28;20466;-72
2020/12/10 08:30:35;;;;;;;10.37;9.00;;;2.00;99.90;;;;;;5047765;28;20478;-74
2020/12/10 08:33:02;;;;;;;13.80;10.53;;;1.90;99.90;;;;;;5046002;28;20429;-77
2020/12/10 08:35:28;;;;;;;11.50;8.43;;;1.90;99.90;;;;;;5047348;28;20799;-73
2020/12/10 08:37:54;;;;;;;12.03;9.87;;;1.90;99.90;;;;;;5047487;28;20448;-74
2020/12/10 08:40:27;;;;;;;13.53;9.83;;;1.90;99.90;;;;;;5047534;28;20433;-71
2020/12/10 08:42:54;;;;;;;12.77;9.43;;;2.00;99.90;;;;;;5046871;28;20550;-72
2020/12/10 08:45:33;;;;;;;11.73;9.60;;;2.00;99.90;;;;;;5047177;28;20960;-74
2020/12/10 08:48:00;;;;;;;11.47;9.60;;;2.00;99.90;;;;;;5047653;28;20636;-72
2020/12/10 08:50:27;;;;;;;11.80;9.60;;;2.00;99.90;;;;;;5047391;28;20420;-73
2020/12/10 08:52:59;;;;;;;13.57;10.13;;;2.00;99.90;;;;;;5049070;28;20519;-73
2020/12/10 08:55:34;;;;;;;12.37;11.07;;;2.00;99.90;;;;;;5048501;28;20437;-75
2020/12/10 08:57:59;;;;;;;13.00;10.30;;;2.00;99.90;;;;;;5047157;28;20857;-76
2020/12/10 09:00:25;;;;;;;12.87;9.90;;;2.00;99.90;;;;;;5047851;28;20425;-73
2020/12/10 09:02:50;;;;;;;12.57;9.37;;;2.00;99.90;;;;;;5045251;28;20186;-71
2020/12/10 09:05:16;;;;;;;12.90;10.37;;;2.10;99.90;;;;;;5045439;28;20174;-69
2020/12/10 09:07:42;;;;;;;11.47;9.93;;;2.10;99.90;;;;;;5047366;28;20234;-72
2020/12/10 09:10:08;;;;;;;12.60;10.70;;;2.20;99.90;;;;;;5045774;28;20429;-73
2020/12/10 09:12:33;;;;;;;14.23;10.20;;;2.20;99.90;;;;;;5049117;28;20788;-74
2020/12/10 09:14:59;;;;;;;13.53;11.07;;;2.00;99.90;;;;;;5040458;28;20179;-74
2020/12/10 09:17:26;;;;;;;10.40;9.30;;;2.00;99.90;;;;;;5051652;28;20236;-74
2020/12/10 09:19:52;;;;;;;12.40;10.60;;;2.10;99.90;;;;;;5051256;28;20218;-76
2020/12/10 09:22:18;;;;;;;12.10;10.70;;;2.20;99.90;;;;;;5051191;28;20439;-71
2020/12/10 09:24:43;;;;;;;11.27;10.10;;;2.30;99.90;;;;;;5050227;28;20190;-71
2020/12/10 09:27:09;;;;;;;11.93;9.33;;;2.20;99.90;;;;;;5048372;28;20191;-72
2020/12/10 09:29:35;;;;;;;14.83;10.50;;;2.30;99.90;;;;;;5046485;28;20269;-73
2020/12/10 09:32:02;;;;;;;13.17;9.70;;;2.30;99.90;;;;;;5046131;28;20551;-72
2020/12/10 09:34:28;;;;;;;10.37;9.30;;;2.20;99.90;;;;;;5046007;28;21002;-75
2020/12/10 09:36:53;;;;;;;11.60;9.13;;;2.10;99.90;;;;;;5045533;28;20449;-75
2020/12/10 09:39:19;;;;;;;12.77;10.50;;;2.20;99.90;;;;;;5045880;28;20213;-74
2020/12/10 09:41:44;;;;;;;11.90;9.90;;;2.20;99.90;;;;;;5045103;28;20240;-73
2020/12/10 09:44:10;;;;;;;12.60;10.23;;;2.20;99.90;;;;;;5045781;28;20225;-74
2020/12/10 09:46:36;;;;;;;11.13;9.97;;;2.20;99.90;;;;;;5045897;28;20194;-74
2020/12/10 09:49:02;;;;;;;12.47;9.93;;;2.20;99.90;;;;;;5045683;28;20425;-74
2020/12/10 09:51:37;;;;;;;11.20;9.53;;;2.10;99.90;;;;;;5046263;28;20193;-72
2020/12/10 09:54:09;;;;;;;8.63;7.73;;;2.10;99.90;;;;;;5045301;28;20942;-74
2020/12/10 09:56:58;;;;;;;9.07;8.17;;;2.30;99.90;;;;;;5045597;28;20978;-75
2020/12/10 09:59:24;;;;;;;9.40;7.57;;;2.30;99.90;;;;;;5045875;28;20856;-75
2020/12/10 10:01:50;;;;;;;10.57;7.90;;;2.30;99.90;;;;;;5045838;28;20413;-72
2020/12/10 10:04:16;;;;;;;9.57;7.57;;;2.40;99.90;;;;;;5045528;28;20436;-73
2020/12/10 10:06:46;;;;;;;10.77;7.30;;;2.40;99.90;;;;;;5045625;28;20187;-73
2020/12/10 10:09:12;;;;;;;7.90;6.23;;;2.40;99.90;;;;;;5045865;28;20292;-75
2020/12/10 10:11:37;;;;;;;7.80;6.90;;;2.50;99.90;;;;;;5046266;28;20515;-75
2020/12/10 10:14:03;;;;;;;7.30;6.43;;;2.50;99.90;;;;;;5045591;28;20226;-72
2020/12/10 10:16:32;;;;;;;8.57;5.70;;;2.50;99.90;;;;;;5045450;28;20201;-72
2020/12/10 10:18:59;;;;;;;9.87;6.73;;;2.60;99.90;;;;;;5044361;28;21005;-75
2020/12/10 10:21:28;;;;;;;6.73;5.97;;;2.50;99.90;;;;;;5045511;28;20421;-73
2020/12/10 10:23:57;;;;;;;7.30;5.90;;;2.50;99.90;;;;;;5045731;28;20429;-74
2020/12/10 10:26:24;;;;;;;6.57;5.63;;;2.50;99.90;;;;;;5044810;28;20441;-73
2020/12/10 10:28:52;;;;;;;7.97;5.90;;;2.60;99.90;;;;;;5045589;28;20511;-74
2020/12/10 10:31:17;;;;;;;7.10;6.20;;;2.70;99.90;;;;;;5045309;28;20818;-72
2020/12/10 10:33:44;;;;;;;6.33;5.43;;;2.70;99.90;;;;;;5045537;28;20437;-73
2020/12/10 10:36:10;;;;;;;6.50;5.50;;;2.80;99.90;;;;;;5045406;28;20269;-76
2020/12/10 10:38:36;;;;;;;6.20;5.60;;;2.70;99.90;;;;;;5045571;28;20473;-75
2020/12/10 10:41:02;;;;;;;5.90;5.40;;;2.70;99.90;;;;;;5045564;28;20518;-74
2020/12/10 10:43:27;;;;;;;7.00;5.70;;;2.70;99.90;;;;;;5044811;28;20433;-74
2020/12/10 10:45:53;;;;;;;7.83;6.80;;;2.70;99.90;;;;;;5044916;28;20932;-74
2020/12/10 10:48:19;;;;;;;6.83;6.13;;;2.70;99.90;;;;;;5045224;28;20214;-74
2020/12/10 10:50:44;;;;;;;6.77;5.60;;;2.70;99.90;;;;;;5045254;28;20244;-74
2020/12/10 10:53:10;;;;;;;6.57;5.90;;;2.80;99.90;;;;;;5043935;28;20762;-74
2020/12/10 10:55:35;;;;;;;6.47;5.20;;;2.80;99.90;;;;;;5044861;28;20190;-74
2020/12/10 10:58:01;;;;;;;6.60;5.80;;;2.80;99.90;;;;;;5043766;28;20793;-73
2020/12/10 11:00:27;;;;;;;6.73;4.90;;;2.70;99.90;;;;;;5045593;28;20199;-74
2020/12/10 11:02:52;;;;;;;5.30;4.80;;;2.80;99.90;;;;;;5049042;28;20209;-74
2020/12/10 11:05:18;;;;;;;6.33;5.70;;;2.80;99.90;;;;;;5048374;28;20182;-73
2020/12/10 11:07:44;;;;;;;6.47;5.57;;;2.60;99.90;;;;;;5048880;28;20207;-74
2020/12/10 11:10:11;;;;;;;6.67;5.97;;;2.70;99.90;;;;;;5048946;28;20209;-75
2020/12/10 11:12:36;;;;;;;6.87;6.17;;;2.80;99.90;;;;;;5049190;28;20647;-74
2020/12/10 11:15:03;;;;;;;6.10;5.50;;;2.90;99.90;;;;;;5049148;28;20432;-75
2020/12/10 11:17:28;;;;;;;7.63;6.40;;;2.70;99.90;;;;;;5048330;28;20753;-73
2020/12/10 11:19:54;;;;;;;7.73;6.30;;;2.70;99.90;;;;;;5049047;28;20575;-75
2020/12/10 11:22:19;;;;;;;7.43;6.70;;;2.70;99.90;;;;;;5048703;28;20647;-75
2020/12/10 11:24:45;;;;;;;6.90;6.30;;;2.80;99.90;;;;;;5048964;28;20187;-73
2020/12/10 11:27:11;;;;;;;6.60;5.73;;;2.70;99.90;;;;;;5047045;28;20217;-73
2020/12/10 11:29:37;;;;;;;7.60;6.43;;;2.60;99.90;;;;;;5048504;28;20247;-72
2020/12/10 11:32:03;;;;;;;6.63;6.03;;;2.70;99.90;;;;;;5049097;28;20190;-74
2020/12/10 11:34:30;;;;;;;8.87;7.33;;;2.60;99.90;;;;;;5047768;28;20197;-75
2020/12/10 11:36:56;;;;;;;7.93;7.17;;;2.60;99.90;;;;;;5048253;28;20452;-75
2020/12/10 11:39:22;;;;;;;8.80;7.90;;;2.50;99.90;;;;;;5047361;28;20472;-75
2020/12/10 11:41:47;;;;;;;9.37;6.97;;;2.50;99.90;;;;;;5049400;28;20535;-76
2020/12/10 11:44:13;;;;;;;8.37;7.23;;;2.30;99.90;;;;;;5048510;28;20223;-72
2020/12/10 11:46:39;;;;;;;7.67;6.73;;;2.50;99.90;;;;;;5052030;28;20654;-72
2020/12/10 11:49:04;;;;;;;6.37;5.70;;;2.50;99.90;;;;;;5055549;28;20201;-74
2020/12/10 11:51:33;;;;;;;7.27;6.53;;;2.40;99.90;;;;;;5051654;28;20236;-73
2020/12/10 11:54:01;;;;;;;7.80;6.83;;;2.40;99.90;;;;;;5049460;28;20429;-73
2020/12/10 11:56:27;;;;;;;8.80;7.73;;;2.40;99.90;;;;;;5048112;28;20429;-73
2020/12/10 11:58:52;;;;;;;7.90;7.10;;;2.40;99.90;;;;;;5047699;28;20473;-74
2020/12/10 12:01:18;;;;;;;9.37;7.33;;;2.50;99.90;;;;;;5048259;28;20183;-73
2020/12/10 12:03:43;;;;;;;7.00;6.33;;;2.60;99.90;;;;;;5048526;28;20193;-74
2020/12/10 12:06:09;;;;;;;8.53;7.03;;;2.80;99.90;;;;;;5047504;28;20661;-73
2020/12/10 12:08:35;;;;;;;10.20;8.73;;;2.80;99.90;;;;;;5047174;28;20710;-75
2020/12/10 12:11:02;;;;;;;8.83;7.90;;;2.80;99.90;;;;;;5047582;28;20643;-73
2020/12/10 12:13:29;;;;;;;8.47;7.57;;;2.80;99.90;;;;;;5047505;28;20479;-73
2020/12/10 12:15:54;;;;;;;9.73;8.73;;;2.80;99.90;;;;;;5045557;28;20428;-73
2020/12/10 12:18:20;;;;;;;8.50;7.70;;;2.80;99.90;;;;;;5047643;28;20491;-73
2020/12/10 12:20:46;;;;;;;9.10;8.17;;;2.70;99.90;;;;;;5047781;28;20283;-73
2020/12/10 12:23:12;;;;;;;8.93;8.03;;;2.50;99.90;;;;;;5047245;28;20559;-73
2020/12/10 12:25:38;;;;;;;9.07;8.07;;;2.40;99.90;;;;;;5046189;28;20653;-73
2020/12/10 12:28:04;;;;;;;8.40;7.60;;;2.40;99.90;;;;;;5043986;28;20579;-74
2020/12/10 12:30:30;;;;;;;10.03;8.87;;;2.40;99.90;;;;;;5042189;28;20516;-73
2020/12/10 12:32:56;;;;;;;10.20;9.20;;;2.40;99.90;;;;;;5047766;28;20232;-73
2020/12/10 12:35:22;;;;;;;9.60;8.67;;;2.30;99.90;;;;;;5046839;28;20516;-73
2020/12/10 12:37:47;;;;;;;10.53;8.40;;;2.30;99.90;;;;;;5047824;28;20209;-75
2020/12/10 12:40:13;;;;;;;10.40;8.17;;;2.30;99.90;;;;;;5047518;28;20702;-75
2020/12/10 12:42:40;;;;;;;10.53;8.17;;;2.30;99.90;;;;;;5046568;28;20933;-73
2020/12/10 12:45:06;;;;;;;12.17;8.47;;;2.40;99.90;;;;;;5046366;28;20189;-75
2020/12/10 12:47:31;;;;;;;11.80;8.97;;;2.40;99.90;;;;;;5047305;28;20433;-74
2020/12/10 12:49:57;;;;;;;11.43;8.23;;;2.40;99.90;;;;;;5047430;28;20186;-74